Friday, December 14, 2018, 12:04 PM EST
Back to Local

KABE, Lehigh Valley International Airport

Location: Allentown, PA, United States Lat: 40.65
Local Time: 12:04 PM EST (17:04 GMT) Lon: -75.45
Time Zone: US/Eastern Elev: 393 ft

Show me the last for .
Show Coded

Time T Td Feel RH Dir Speed Gust Alt SLP Vis Weather Sky Remarks
2018-12-14 11:51 42 37 40 82 60° 3 - 30.37 30.38 2 HZ OVC008 None
2018-12-14 10:51 41 36 39 82 40° 3 - 30.43 30.44 1 HZ OVC006 None
2018-12-14 10:36 40 36 35 85 50° 7 - 30.43 - 1 BR OVC006 None
2018-12-14 09:51 39 35 35 85 60° 6 - 30.45 30.46 1 BR OVC003 None
2018-12-14 08:51 37 34 34 88 60° 3 - 30.47 30.48 0 BR OVC003 None
2018-12-14 07:51 36 33 33 89 90° 3 - 30.45 30.46 0 BR OVC003 None
2018-12-14 06:51 36 33 31 89 80° 6 - 30.45 30.46 0 BR OVC003 None
2018-12-14 06:12 36 32 30 85 90° 8 - 30.42 - 0 BR OVC003 None
2018-12-14 05:51 36 32 30 85 70° 7 - 30.43 30.44 2 BR OVC003 None
2018-12-14 04:51 35 32 30 88 90° 6 - 30.42 30.43 2 BR OVC003 None
2018-12-14 04:25 35 32 30 88 80° 6 - 30.42 - 2 BR OVC003 None
2018-12-14 03:51 35 31 29 84 80° 7 - 30.44 30.45 3 BR OVC004 None
2018-12-14 03:07 35 30 30 81 80° 6 - 30.45 - 4 BR OVC004 None
2018-12-14 02:51 35 30 30 81 80° 6 - 30.45 30.46 4 BR OVC005 None
2018-12-14 01:51 35 30 31 81 80° 5 - 30.45 30.46 5 BR OVC005 None
2018-12-14 00:51 35 29 29 78 80° 7 - 30.44 30.45 5 BR OVC006 6-hr Min Temp (1am): 32.0°F
6-hr Max Temp (1am): 35.1°F
2018-12-13 23:51 35 29 31 78 80° 5 - 30.46 30.47 6 BR OVC006 24-hr Min Temp (12am): 30.9°F
24-hr Max Temp (12am): 41.0°F
2018-12-13 22:51 34 29 28 81 70° 7 - 30.46 30.47 5 BR OVC007 None
2018-12-13 21:51 34 28 30 78 70° 5 - 30.45 30.46 7 BR OVC008 None
2018-12-13 20:51 34 28 28 78 60° 7 - 30.45 30.46 6 BR OVC008 None
2018-12-13 20:40 33 28 28 81 60° 6 - 30.45 - 9 OVC008 None
2018-12-13 20:11 33 27 25 77 70° 9 - 30.45 - 9 BKN011 OVC080 None
2018-12-13 19:51 33 27 26 77 70° 8 - 30.44 30.45 9 OVC080 None
2018-12-13 18:51 33 27 26 77 60° 8 - 30.43 30.44 8 BKN060 OVC085 6-hr Precip Total (7pm): 0.00"
6-hr Min Temp (7pm): 33.1°F
6-hr Max Temp (7pm): 41.0°F
2018-12-13 17:51 35 28 27 75 60° 12 - 30.41 30.42 10 FEW049 OVC060 1-hr Precip Total: Trace
2018-12-13 16:51 35 29 29 78 40° 7 - 30.40 30.41 10 FEW037 BKN060 OVC070 1-hr Precip Total: Trace
2018-12-13 15:51 37 29 30 72 50° 9 - 30.39 30.40 10 OVC035 1-hr Precip Total: Trace
6-hr Precip Total (4pm): 0.00"
2018-12-13 14:51 39 29 32 66 60° 10 - 30.37 30.38 10 BKN035 OVC041 None
2018-12-13 13:51 40 29 33 64 60° 10 - 30.35 30.36 10 SCT034 BKN040 OVC060 None
2018-12-13 12:59 39 28 33 64 60° 9 - 30.35 - 10 BKN031 OVC042 None
2018-12-13 12:51 39 28 33 64 50° 8 - 30.35 30.36 10 OVC029 6-hr Min Temp (1pm): 35.1°F
6-hr Max Temp (1pm): 41.0°F

Support USWX by starting your Amazon purchase here.